createdAt,value
2019-05-23T00:01:57.962Z,23.30
2019-05-23T00:04:37.110Z,27.40
2019-05-23T00:07:10.662Z,30.07
2019-05-23T00:09:39.742Z,23.00
2019-05-23T00:12:18.121Z,23.37
2019-05-23T00:14:53.439Z,24.27
2019-05-23T00:17:23.724Z,25.23
2019-05-23T00:19:53.080Z,27.63
2019-05-23T00:22:22.386Z,27.23
2019-05-23T00:24:51.765Z,27.50
2019-05-23T00:27:21.842Z,24.60
2019-05-23T00:29:51.404Z,30.00
2019-05-23T00:32:34.168Z,25.70
2019-05-23T00:35:04.641Z,23.67
2019-05-23T00:37:34.694Z,28.37
2019-05-23T00:40:03.968Z,23.43
2019-05-23T00:42:33.532Z,23.47
2019-05-23T00:45:02.415Z,28.40
2019-05-23T00:47:31.702Z,24.80
2019-05-23T00:50:01.819Z,34.90
2019-05-23T00:52:31.171Z,25.60
2019-05-23T00:54:59.803Z,31.33
2019-05-23T00:57:28.594Z,30.50
2019-05-23T00:59:57.799Z,29.87
2019-05-23T01:02:27.682Z,30.43
2019-05-23T01:04:56.587Z,38.63
2019-05-23T01:07:25.906Z,27.90
2019-05-23T01:09:55.166Z,27.73
2019-05-23T01:12:23.806Z,29.83
2019-05-23T01:14:53.380Z,31.80
2019-05-23T01:17:24.507Z,28.23
2019-05-23T01:19:54.833Z,35.60
2019-05-23T01:22:25.323Z,28.67
2019-05-23T01:24:55.623Z,29.23
2019-05-23T01:27:25.093Z,28.33
2019-05-23T01:29:55.951Z,27.90
2019-05-23T01:32:44.888Z,31.17
2019-05-23T01:35:14.991Z,36.13
2019-05-23T01:37:45.263Z,28.23
2019-05-23T01:40:15.015Z,27.60
2019-05-23T01:42:44.222Z,31.30
2019-05-23T01:45:15.236Z,41.53
2019-05-23T01:47:45.912Z,34.50
2019-05-23T01:50:15.766Z,32.50
2019-05-23T01:52:45.104Z,33.23
2019-05-23T01:55:14.646Z,35.53
2019-05-23T01:57:43.447Z,29.87
2019-05-23T02:00:14.281Z,39.63
2019-05-23T02:02:43.008Z,30.30
2019-05-23T02:05:13.987Z,34.37
2019-05-23T02:07:42.595Z,35.27
2019-05-23T02:10:12.477Z,33.07
2019-05-23T02:12:41.019Z,29.80
2019-05-23T02:15:11.884Z,30.53
2019-05-23T02:17:42.326Z,35.67
2019-05-23T02:20:14.045Z,34.13
2019-05-23T02:22:44.247Z,38.43
2019-05-23T02:25:14.608Z,43.13
2019-05-23T02:27:43.299Z,39.20
2019-05-23T02:30:32.962Z,36.67
2019-05-23T02:32:46.760Z,32.30
2019-05-23T02:35:15.743Z,35.43
2019-05-23T02:37:49.321Z,32.93
2019-05-23T02:40:21.309Z,74.60
2019-05-23T02:42:51.783Z,48.90
2019-05-23T02:45:23.415Z,47.40
2019-05-23T02:47:53.390Z,48.07
2019-05-23T02:50:26.087Z,34.97
2019-05-23T02:52:56.484Z,40.10
2019-05-23T02:55:32.001Z,40.30
2019-05-23T02:58:04.282Z,32.67
2019-05-23T03:00:55.376Z,31.43
2019-05-23T03:03:28.304Z,33.43
2019-05-23T03:05:59.295Z,56.93
2019-05-23T03:08:29.536Z,41.10
2019-05-23T03:11:08.369Z,38.07
2019-05-23T03:13:38.054Z,38.43
2019-05-23T03:16:07.815Z,42.57
2019-05-23T03:18:39.923Z,36.60
2019-05-23T03:21:09.138Z,51.50
2019-05-23T03:23:37.775Z,105.93
2019-05-23T03:26:18.773Z,72.60
2019-05-23T03:28:48.620Z,81.00
2019-05-23T03:31:29.545Z,70.63
2019-05-23T03:33:52.089Z,67.43
2019-05-23T03:36:23.117Z,31.73
2019-05-23T03:38:53.420Z,33.43
2019-05-23T03:41:22.251Z,27.27
2019-05-23T03:43:51.086Z,39.00
2019-05-23T03:46:20.248Z,30.90
2019-05-23T03:48:49.566Z,33.53
2019-05-23T03:51:19.545Z,39.00
2019-05-23T03:53:49.286Z,44.73
2019-05-23T03:56:20.026Z,49.37
2019-05-23T03:58:50.832Z,22.83
2019-05-23T04:01:21.179Z,27.10
2019-05-23T04:03:50.607Z,29.37
2019-05-23T04:06:19.790Z,31.10
2019-05-23T04:08:50.416Z,31.33
2019-05-23T04:11:20.279Z,27.87
2019-05-23T04:13:48.981Z,30.17
2019-05-23T04:16:17.683Z,31.60
2019-05-23T04:18:46.462Z,28.40
2019-05-23T04:21:17.011Z,31.73
2019-05-23T04:23:45.717Z,48.13
2019-05-23T04:26:14.746Z,30.13
2019-05-23T04:28:43.376Z,27.60
2019-05-23T04:31:13.148Z,31.03
2019-05-23T04:33:42.512Z,27.33
2019-05-23T04:36:11.105Z,24.97
2019-05-23T04:38:39.675Z,29.47
2019-05-23T04:41:08.295Z,25.97
2019-05-23T04:43:36.995Z,29.03
2019-05-23T04:46:05.982Z,27.43
2019-05-23T04:48:35.259Z,28.10
2019-05-23T04:51:05.212Z,28.27
2019-05-23T04:53:35.299Z,33.63
2019-05-23T04:56:04.776Z,28.63
2019-05-23T04:58:33.778Z,27.43
2019-05-23T05:01:03.888Z,37.27
2019-05-23T05:03:32.900Z,30.80
2019-05-23T05:06:02.070Z,30.13
2019-05-23T05:08:30.752Z,36.60
2019-05-23T05:10:59.406Z,39.53
2019-05-23T05:13:28.342Z,26.40
2019-05-23T05:15:57.438Z,33.87
2019-05-23T05:18:26.069Z,28.37
2019-05-23T05:20:54.738Z,37.47
2019-05-23T05:23:23.283Z,30.87
2019-05-23T05:25:51.860Z,35.17
2019-05-23T05:28:20.413Z,34.37
2019-05-23T05:30:48.985Z,33.77
2019-05-23T05:33:18.264Z,32.73
2019-05-23T05:35:46.983Z,32.33
2019-05-23T05:38:16.492Z,33.87
2019-05-23T05:40:45.994Z,33.87
2019-05-23T05:43:15.237Z,35.40
2019-05-23T05:45:44.427Z,36.50
2019-05-23T05:48:13.055Z,31.70
2019-05-23T05:50:41.774Z,33.43
2019-05-23T05:53:10.384Z,35.93
2019-05-23T05:55:39.272Z,39.03
2019-05-23T05:58:07.981Z,32.20
2019-05-23T06:00:47.278Z,30.80
2019-05-23T06:03:16.195Z,36.07
2019-05-23T06:06:02.538Z,43.70
2019-05-23T06:08:35.684Z,31.47
2019-05-23T06:11:04.442Z,25.33
2019-05-23T06:13:33.237Z,33.10
2019-05-23T06:16:01.972Z,27.03
2019-05-23T06:18:30.617Z,26.37
2019-05-23T06:20:59.917Z,32.53
2019-05-23T06:23:28.909Z,37.47
2019-05-23T06:25:57.525Z,31.43
2019-05-23T06:28:26.485Z,30.67
2019-05-23T06:30:55.777Z,25.47
2019-05-23T06:33:26.064Z,27.03
2019-05-23T06:35:55.853Z,22.17
2019-05-23T06:38:26.015Z,25.40
2019-05-23T06:40:55.910Z,30.50
2019-05-23T06:43:25.769Z,24.90
2019-05-23T06:45:54.873Z,27.20
2019-05-23T06:48:24.228Z,21.67
2019-05-23T06:50:52.914Z,28.17
2019-05-23T06:53:21.549Z,23.90
2019-05-23T06:55:50.231Z,28.50
2019-05-23T06:58:19.480Z,23.27
2019-05-23T07:00:49.330Z,25.93
2019-05-23T07:03:18.558Z,20.43
2019-05-23T07:05:47.515Z,24.80
2019-05-23T07:08:16.252Z,21.97
2019-05-23T07:10:45.002Z,26.07
2019-05-23T07:13:13.925Z,24.53
2019-05-23T07:15:43.472Z,28.43
2019-05-23T07:18:12.543Z,27.33
2019-05-23T07:20:41.231Z,28.53
2019-05-23T07:23:12.168Z,29.00
2019-05-23T07:25:40.943Z,26.77
2019-05-23T07:28:09.557Z,30.10
2019-05-23T07:30:38.201Z,30.47
2019-05-23T07:33:07.978Z,31.37
2019-05-23T07:35:36.667Z,24.00
2019-05-23T07:38:05.569Z,32.33
2019-05-23T07:40:34.181Z,32.83
2019-05-23T07:43:04.166Z,40.30
2019-05-23T07:45:34.419Z,25.80
2019-05-23T07:48:03.326Z,31.40
2019-05-23T07:50:32.808Z,28.77
2019-05-23T07:53:01.753Z,19.60
2019-05-23T07:55:37.763Z,27.60
2019-05-23T07:58:07.434Z,23.13
2019-05-23T08:00:54.212Z,28.37
2019-05-23T08:03:24.685Z,18.40
2019-05-23T08:05:53.542Z,15.47
2019-05-23T08:08:22.159Z,18.07
2019-05-23T08:10:50.727Z,20.30
2019-05-23T08:13:19.332Z,21.27
2019-05-23T08:15:49.924Z,18.30
2019-05-23T08:18:18.679Z,19.70
2019-05-23T08:20:47.376Z,14.97
2019-05-23T08:23:16.985Z,17.13
2019-05-23T08:25:45.539Z,14.33
2019-05-23T08:28:14.432Z,22.90
2019-05-23T08:30:43.125Z,16.70
2019-05-23T08:33:12.596Z,15.13
2019-05-23T08:35:41.624Z,13.40
2019-05-23T08:38:10.877Z,12.30
2019-05-23T08:40:40.974Z,18.50
2019-05-23T08:43:09.914Z,11.90
2019-05-23T08:45:38.626Z,29.80
2019-05-23T08:48:07.880Z,17.13
2019-05-23T08:50:36.442Z,15.27
2019-05-23T08:53:04.967Z,21.40
2019-05-23T08:55:34.568Z,10.87
2019-05-23T08:58:04.883Z,13.67
2019-05-23T09:00:37.861Z,15.90
2019-05-23T09:03:07.481Z,18.10
2019-05-23T09:05:38.757Z,14.53
2019-05-23T09:08:09.102Z,14.80
2019-05-23T09:10:39.243Z,13.93
2019-05-23T09:13:08.641Z,10.90
2019-05-23T09:15:37.844Z,11.20
2019-05-23T09:18:06.910Z,11.73
2019-05-23T09:20:36.273Z,9.03
2019-05-23T09:23:05.254Z,13.40
2019-05-23T09:25:33.883Z,15.80
2019-05-23T09:28:03.497Z,12.33
2019-05-23T09:30:32.477Z,10.47
2019-05-23T09:33:01.830Z,10.93
2019-05-23T09:35:31.438Z,11.87
2019-05-23T09:38:00.125Z,11.43
2019-05-23T09:40:28.796Z,14.37
2019-05-23T09:42:58.245Z,11.93
2019-05-23T09:45:26.913Z,9.90
2019-05-23T09:47:55.487Z,12.13
2019-05-23T09:50:24.707Z,11.87
2019-05-23T09:52:53.379Z,8.43
2019-05-23T09:55:22.771Z,11.33
2019-05-23T09:57:51.500Z,10.67
2019-05-23T10:00:21.993Z,8.73
2019-05-23T10:02:51.018Z,12.63
2019-05-23T10:05:40.080Z,11.60
2019-05-23T10:07:49.954Z,10.23
2019-05-23T10:10:20.122Z,7.17
2019-05-23T10:12:48.803Z,12.10
2019-05-23T10:15:35.676Z,8.80
2019-05-23T10:18:04.813Z,7.73
2019-05-23T10:20:34.879Z,6.93
2019-05-23T10:23:04.064Z,8.10
2019-05-23T10:25:32.716Z,5.13
2019-05-23T10:28:01.384Z,12.90
2019-05-23T10:30:30.518Z,6.37
2019-05-23T10:32:59.135Z,17.30
2019-05-23T10:35:27.835Z,6.77
2019-05-23T10:37:56.606Z,8.10
2019-05-23T10:40:25.340Z,6.53
2019-05-23T10:42:54.084Z,10.70
2019-05-23T10:45:23.020Z,9.60
2019-05-23T10:47:51.643Z,7.10
2019-05-23T10:50:20.652Z,5.53
2019-05-23T10:52:49.315Z,6.83
2019-05-23T10:55:18.150Z,6.87
2019-05-23T10:57:47.303Z,7.33
2019-05-23T11:00:17.675Z,9.27
2019-05-23T11:02:47.000Z,5.80
2019-05-23T11:05:15.863Z,5.53
2019-05-23T11:07:44.643Z,5.67
2019-05-23T11:10:14.954Z,8.30
2019-05-23T11:12:43.559Z,7.90
2019-05-23T11:15:12.350Z,5.43
2019-05-23T11:17:41.043Z,5.37
2019-05-23T11:20:11.924Z,5.00
2019-05-23T11:22:40.840Z,6.73
2019-05-23T11:25:13.426Z,4.80
2019-05-23T11:27:42.488Z,3.53
2019-05-23T11:30:17.275Z,4.30
2019-05-23T11:32:45.876Z,5.17
2019-05-23T11:35:14.603Z,3.63
2019-05-23T11:37:43.261Z,4.67
2019-05-23T11:40:12.308Z,4.17
2019-05-23T11:42:40.839Z,5.97
2019-05-23T11:45:09.559Z,5.50
2019-05-23T11:47:38.216Z,7.40
2019-05-23T11:50:07.425Z,4.30
2019-05-23T11:52:36.099Z,2.93
2019-05-23T11:55:06.778Z,5.43
2019-05-23T11:57:37.656Z,4.63
2019-05-23T12:00:14.027Z,6.87
2019-05-23T12:02:47.138Z,5.93
2019-05-23T12:05:23.783Z,7.20
2019-05-23T12:07:52.368Z,11.73
2019-05-23T12:10:21.137Z,3.50
2019-05-23T12:12:49.728Z,5.27
2019-05-23T12:15:20.074Z,7.67
2019-05-23T12:17:49.049Z,3.97
2019-05-23T12:20:18.312Z,5.23
2019-05-23T12:22:47.421Z,10.70
2019-05-23T12:25:22.790Z,4.03
2019-05-23T12:27:47.527Z,7.50
2019-05-23T12:30:18.731Z,4.50
2019-05-23T12:33:00.286Z,3.30
2019-05-23T12:35:29.132Z,6.23
2019-05-23T12:38:02.275Z,3.93
2019-05-23T12:40:29.004Z,3.90
2019-05-23T12:42:57.564Z,6.23
2019-05-23T12:45:37.211Z,3.13
2019-05-23T12:48:16.827Z,3.57
2019-05-23T12:50:53.786Z,3.43
2019-05-23T12:53:19.932Z,4.17
2019-05-23T12:55:49.674Z,4.53
2019-05-23T12:58:18.637Z,3.13
2019-05-23T13:00:48.887Z,2.53
2019-05-23T13:03:17.735Z,3.07
2019-05-23T13:05:46.429Z,3.23
2019-05-23T13:08:15.894Z,2.93
2019-05-23T13:10:44.660Z,3.30
2019-05-23T13:13:13.724Z,5.10
2019-05-23T13:15:42.616Z,2.40
2019-05-23T13:18:11.299Z,2.37
2019-05-23T13:20:40.097Z,2.70
2019-05-23T13:23:09.180Z,3.40
2019-05-23T13:25:38.178Z,2.93
2019-05-23T13:28:07.504Z,4.23
2019-05-23T13:30:36.104Z,6.10
2019-05-23T13:33:05.040Z,2.40
2019-05-23T13:35:34.180Z,2.53
2019-05-23T13:38:02.880Z,14.73
2019-05-23T13:40:31.478Z,2.63
2019-05-23T13:43:00.160Z,3.17
2019-05-23T13:45:29.137Z,2.47
2019-05-23T13:47:57.751Z,1.97
2019-05-23T13:50:26.853Z,2.33
2019-05-23T13:52:55.459Z,2.83
2019-05-23T13:55:24.440Z,4.43
2019-05-23T13:57:53.044Z,2.70
2019-05-23T14:00:23.375Z,2.60
2019-05-23T14:02:52.075Z,2.30
2019-05-23T14:05:21.727Z,2.30
2019-05-23T14:07:50.462Z,3.17
2019-05-23T14:10:19.610Z,2.40
2019-05-23T14:12:48.479Z,2.20
2019-05-23T14:15:18.825Z,4.83
2019-05-23T14:17:48.576Z,2.97
2019-05-23T14:20:17.832Z,2.57
2019-05-23T14:23:04.552Z,3.03
2019-05-23T14:25:33.763Z,5.80
2019-05-23T14:28:03.975Z,2.83
2019-05-23T14:30:34.816Z,2.50
2019-05-23T14:33:20.312Z,3.60
2019-05-23T14:35:50.927Z,7.40
2019-05-23T14:38:30.124Z,5.67
2019-05-23T14:40:49.746Z,2.80
2019-05-23T14:43:22.613Z,5.27
2019-05-23T14:45:55.543Z,3.57
2019-05-23T14:48:25.810Z,2.70
2019-05-23T14:50:56.431Z,3.83
2019-05-23T14:53:26.703Z,3.40
2019-05-23T14:55:55.231Z,3.03
2019-05-23T14:58:24.226Z,3.03
2019-05-23T15:00:53.782Z,2.93
2019-05-23T15:03:22.556Z,4.60
2019-05-23T15:05:51.292Z,3.07
2019-05-23T15:08:20.288Z,4.30
2019-05-23T15:10:49.843Z,3.40
2019-05-23T15:13:18.559Z,8.43
2019-05-23T15:15:47.234Z,4.30
2019-05-23T15:18:16.041Z,4.23
2019-05-23T15:20:44.656Z,3.70
2019-05-23T15:23:13.212Z,3.87
2019-05-23T15:25:44.567Z,8.80
2019-05-23T15:28:13.181Z,4.30
2019-05-23T15:30:41.772Z,6.93
2019-05-23T15:33:10.497Z,2.43
2019-05-23T15:35:39.108Z,3.40
2019-05-23T15:38:07.836Z,3.07
2019-05-23T15:40:36.575Z,3.60
2019-05-23T15:43:09.330Z,7.63
2019-05-23T15:45:35.601Z,2.80
2019-05-23T15:48:04.270Z,4.60
2019-05-23T15:50:43.593Z,4.70
2019-05-23T15:53:13.927Z,3.10
2019-05-23T15:55:46.899Z,3.00
2019-05-23T15:58:24.805Z,6.63
2019-05-23T16:00:55.360Z,3.23
2019-05-23T16:03:31.237Z,4.93
2019-05-23T16:05:59.335Z,12.43
2019-05-23T16:08:28.148Z,4.50
2019-05-23T16:10:56.853Z,2.90
2019-05-23T16:13:25.524Z,2.40
2019-05-23T16:15:54.144Z,3.00
2019-05-23T16:18:22.781Z,3.40
2019-05-23T16:20:51.336Z,3.53
2019-05-23T16:23:20.006Z,2.50
2019-05-23T16:25:48.790Z,3.30
2019-05-23T16:28:17.335Z,3.10
2019-05-23T16:30:45.946Z,3.10
2019-05-23T16:33:14.611Z,3.40
2019-05-23T16:35:43.228Z,9.60
2019-05-23T16:38:11.866Z,2.33
2019-05-23T16:40:40.456Z,4.63
2019-05-23T16:43:09.486Z,3.27
2019-05-23T16:45:38.264Z,3.70
2019-05-23T16:48:06.895Z,4.23
2019-05-23T16:50:35.569Z,8.03
2019-05-23T16:53:04.204Z,2.57
2019-05-23T16:55:40.621Z,2.87
2019-05-23T16:58:28.988Z,7.10
2019-05-23T17:01:04.913Z,2.87
2019-05-23T17:03:51.177Z,4.27
2019-05-23T17:06:21.435Z,3.30
2019-05-23T17:09:04.211Z,2.93
2019-05-23T17:11:34.470Z,4.07
2019-05-23T17:14:16.771Z,3.40
2019-05-23T17:16:48.732Z,6.03
2019-05-23T17:19:26.765Z,6.97
2019-05-23T17:22:02.114Z,10.83
2019-05-23T17:24:32.371Z,3.47
2019-05-23T17:27:18.193Z,6.70
2019-05-23T17:29:51.189Z,4.80
2019-05-23T17:32:21.511Z,3.50
2019-05-23T17:34:51.782Z,3.37
2019-05-23T17:37:21.827Z,3.90
2019-05-23T17:39:53.526Z,4.50
2019-05-23T17:42:22.538Z,3.97
2019-05-23T17:44:51.168Z,6.53
2019-05-23T17:47:20.514Z,5.50
2019-05-23T17:49:49.385Z,3.47
2019-05-23T17:52:18.761Z,2.90
2019-05-23T17:54:47.304Z,7.03
2019-05-23T17:57:16.111Z,2.77
2019-05-23T17:59:44.711Z,4.23
2019-05-23T18:02:14.456Z,5.20
2019-05-23T18:04:43.252Z,6.23
2019-05-23T18:07:12.992Z,4.30
2019-05-23T18:09:41.687Z,4.03
2019-05-23T18:12:10.559Z,2.53
2019-05-23T18:14:39.863Z,7.37
2019-05-23T18:17:09.416Z,10.20
2019-05-23T18:19:38.830Z,7.20
2019-05-23T18:22:08.586Z,4.40
2019-05-23T18:24:37.410Z,4.50
2019-05-23T18:27:07.588Z,2.80
2019-05-23T18:29:36.236Z,7.23
2019-05-23T18:32:06.751Z,7.30
2019-05-23T18:34:35.459Z,4.20
2019-05-23T18:37:04.537Z,4.13
2019-05-23T18:39:33.740Z,8.00
2019-05-23T18:42:03.015Z,6.50
2019-05-23T18:44:32.173Z,3.27
2019-05-23T18:47:02.360Z,4.80
2019-05-23T18:49:31.978Z,2.57
2019-05-23T18:52:00.701Z,3.50
2019-05-23T18:54:29.295Z,3.40
2019-05-23T18:56:57.936Z,5.23
2019-05-23T18:59:26.531Z,2.90
2019-05-23T19:01:55.380Z,5.33
2019-05-23T19:04:23.946Z,3.23
2019-05-23T19:06:52.884Z,3.30
2019-05-23T19:09:22.675Z,4.67
2019-05-23T19:11:51.252Z,3.87
2019-05-23T19:14:19.847Z,7.63
2019-05-23T19:16:49.886Z,5.87
2019-05-23T19:19:18.856Z,4.33
2019-05-23T19:21:47.502Z,2.47
2019-05-23T19:24:16.768Z,7.07
2019-05-23T19:26:46.068Z,2.80
2019-05-23T19:29:14.776Z,7.23
2019-05-23T19:31:43.573Z,3.70
2019-05-23T19:34:12.448Z,4.63
2019-05-23T19:36:41.132Z,3.80
2019-05-23T19:39:11.679Z,2.67
2019-05-23T19:41:40.412Z,4.23
2019-05-23T19:44:09.083Z,7.47
2019-05-23T19:46:38.187Z,4.73
2019-05-23T19:49:06.861Z,9.70
2019-05-23T19:51:35.852Z,4.03
2019-05-23T19:54:06.499Z,5.40
2019-05-23T19:56:35.908Z,2.73
2019-05-23T19:59:04.690Z,2.37
2019-05-23T20:01:37.793Z,3.33
2019-05-23T20:04:06.325Z,5.57
2019-05-23T20:06:35.203Z,4.70
2019-05-23T20:09:09.553Z,3.30
2019-05-23T20:11:52.960Z,2.97
2019-05-23T20:14:08.040Z,2.70
2019-05-23T20:16:36.775Z,2.93
2019-05-23T20:19:05.685Z,2.33
2019-05-23T20:21:34.250Z,15.60
2019-05-23T20:24:02.783Z,4.20
2019-05-23T20:26:31.344Z,3.40
2019-05-23T20:29:03.153Z,5.70
2019-05-23T20:31:30.831Z,4.33
2019-05-23T20:33:59.439Z,3.13
2019-05-23T20:36:28.070Z,4.50
2019-05-23T20:38:56.669Z,2.83
2019-05-23T20:41:25.371Z,2.97
2019-05-23T20:43:54.071Z,8.67
2019-05-23T20:46:22.603Z,7.00
2019-05-23T20:48:51.211Z,9.80
2019-05-23T20:51:20.108Z,6.30
2019-05-23T20:53:48.775Z,3.67
2019-05-23T20:56:17.489Z,4.53
2019-05-23T20:58:46.106Z,6.03
2019-05-23T21:01:16.636Z,5.33
2019-05-23T21:03:45.695Z,3.67
2019-05-23T21:06:14.980Z,6.60
2019-05-23T21:08:43.564Z,4.80
2019-05-23T21:11:31.839Z,3.63
2019-05-23T21:14:00.451Z,3.30
2019-05-23T21:16:29.055Z,9.30
2019-05-23T21:18:57.688Z,4.40
2019-05-23T21:21:26.572Z,5.80
2019-05-23T21:23:57.043Z,6.27
2019-05-23T21:26:25.407Z,5.17
2019-05-23T21:28:54.037Z,3.63
2019-05-23T21:31:23.287Z,3.90
2019-05-23T21:33:51.892Z,5.20
2019-05-23T21:36:20.519Z,7.40
2019-05-23T21:38:49.064Z,4.10
2019-05-23T21:41:17.688Z,6.90
2019-05-23T21:43:47.904Z,3.10
2019-05-23T21:46:16.531Z,3.73
2019-05-23T21:48:45.147Z,10.60
2019-05-23T21:51:13.859Z,3.43
2019-05-23T21:53:42.472Z,6.83
2019-05-23T21:56:11.062Z,8.80
2019-05-23T21:58:39.591Z,3.43
2019-05-23T22:01:10.209Z,4.50
2019-05-23T22:03:54.267Z,5.90
2019-05-23T22:06:37.851Z,8.47
2019-05-23T22:09:09.210Z,4.07
2019-05-23T22:11:37.870Z,7.30
2019-05-23T22:14:06.759Z,6.77
2019-05-23T22:16:35.469Z,3.50
2019-05-23T22:19:06.342Z,4.60
2019-05-23T22:21:35.348Z,3.30
2019-05-23T22:24:05.131Z,3.33
2019-05-23T22:26:34.047Z,4.00
2019-05-23T22:29:03.331Z,4.77
2019-05-23T22:31:32.004Z,3.87
2019-05-23T22:34:02.275Z,4.40
2019-05-23T22:36:30.809Z,4.80
2019-05-23T22:38:59.364Z,3.37
2019-05-23T22:41:27.905Z,3.40
2019-05-23T22:43:56.535Z,3.63
2019-05-23T22:46:26.900Z,3.33
2019-05-23T22:48:55.524Z,3.50
2019-05-23T22:51:24.133Z,5.00
2019-05-23T22:53:52.764Z,6.80
2019-05-23T22:56:21.307Z,13.20
2019-05-23T22:58:49.874Z,5.53
2019-05-23T23:01:18.760Z,4.60
2019-05-23T23:03:47.435Z,4.77
2019-05-23T23:06:17.097Z,5.13
2019-05-23T23:08:45.775Z,3.87
2019-05-23T23:11:14.507Z,5.30
2019-05-23T23:13:43.313Z,4.30
2019-05-23T23:16:12.139Z,5.60
2019-05-23T23:18:40.678Z,4.57
2019-05-23T23:21:09.301Z,3.93
2019-05-23T23:23:37.835Z,4.87
2019-05-23T23:26:06.462Z,7.00
2019-05-23T23:28:35.749Z,4.37
2019-05-23T23:31:04.448Z,4.43
2019-05-23T23:33:33.045Z,5.13
2019-05-23T23:36:01.578Z,16.47
2019-05-23T23:38:30.119Z,7.57
2019-05-23T23:40:58.795Z,4.37
2019-05-23T23:43:27.589Z,4.30
2019-05-23T23:46:14.289Z,5.10
2019-05-23T23:49:00.575Z,5.20
2019-05-23T23:51:47.251Z,4.40
2019-05-23T23:54:34.260Z,5.53
2019-05-23T23:57:20.681Z,5.43
2019-05-23T23:59:48.539Z,3.97
